createdAt,value
2022-12-22T00:01:09.258Z,9.15
2022-12-22T00:06:43.639Z,9.22
2022-12-22T00:12:27.597Z,9.28
2022-12-22T00:17:49.663Z,9.28
2022-12-22T00:23:18.601Z,9.35
2022-12-22T00:28:44.320Z,9.37
2022-12-22T00:34:19.579Z,9.49
2022-12-22T00:39:44.825Z,9.52
2022-12-22T00:45:17.868Z,9.55
2022-12-22T00:50:56.431Z,9.59
2022-12-22T00:56:17.864Z,9.59
2022-12-22T01:01:42.762Z,9.62
2022-12-22T01:07:20.551Z,9.65
2022-12-22T01:12:48.212Z,9.63
2022-12-22T01:18:13.306Z,9.62
2022-12-22T01:23:41.946Z,9.64
2022-12-22T01:29:16.318Z,9.59
2022-12-22T01:35:01.870Z,9.57
2022-12-22T01:40:38.752Z,9.53
2022-12-22T01:46:06.415Z,9.63
2022-12-22T01:51:38.118Z,9.77
2022-12-22T01:57:12.225Z,9.85
2022-12-22T02:02:37.762Z,9.92
2022-12-22T02:08:20.226Z,10.00
2022-12-22T02:13:52.819Z,10.08
2022-12-22T02:19:19.066Z,10.13
2022-12-22T02:24:54.555Z,10.20
2022-12-22T02:30:28.504Z,10.20
2022-12-22T02:35:58.697Z,10.26
2022-12-22T02:41:34.333Z,10.34
2022-12-22T02:47:12.815Z,10.39
2022-12-22T02:52:41.709Z,10.41
2022-12-22T02:58:09.501Z,10.47
2022-12-22T03:03:35.266Z,10.51
2022-12-22T03:08:57.140Z,10.56
2022-12-22T03:14:20.997Z,10.60
2022-12-22T03:19:45.487Z,10.62
2022-12-22T03:25:07.464Z,10.65
2022-12-22T03:30:13.501Z,10.68
2022-12-22T03:35:23.055Z,10.71
2022-12-22T03:40:27.120Z,10.69
2022-12-22T03:45:47.798Z,10.66
2022-12-22T03:51:01.774Z,10.67
2022-12-22T03:56:09.817Z,10.66
2022-12-22T04:01:15.879Z,10.66
2022-12-22T04:06:24.291Z,10.68
2022-12-22T04:11:45.283Z,10.69
2022-12-22T04:16:51.509Z,10.71
2022-12-22T04:21:58.552Z,10.72
2022-12-22T04:27:06.369Z,10.73
2022-12-22T04:32:10.745Z,10.71
2022-12-22T04:37:17.981Z,10.72
2022-12-22T04:42:22.401Z,10.76
2022-12-22T04:47:28.470Z,10.77
2022-12-22T04:52:44.320Z,10.79
2022-12-22T04:57:52.835Z,10.81
2022-12-22T05:03:14.000Z,10.81
2022-12-22T05:08:22.414Z,10.84
2022-12-22T05:13:26.833Z,10.89
2022-12-22T05:18:36.212Z,10.90
2022-12-22T05:23:43.296Z,10.93
2022-12-22T05:28:56.743Z,10.92
2022-12-22T05:34:08.676Z,10.94
2022-12-22T05:39:16.099Z,10.93
2022-12-22T05:44:34.943Z,10.88
2022-12-22T05:49:45.328Z,10.81
2022-12-22T05:54:52.066Z,10.78
2022-12-22T06:00:01.443Z,10.76
2022-12-22T06:05:10.513Z,10.73
2022-12-22T06:10:20.589Z,10.66
2022-12-22T06:15:25.511Z,10.63
2022-12-22T06:20:43.923Z,10.64
2022-12-22T06:25:58.560Z,10.60
2022-12-22T06:31:03.224Z,10.55
2022-12-22T06:36:10.514Z,10.56
2022-12-22T06:41:42.220Z,10.55
2022-12-22T06:46:58.345Z,10.52
2022-12-22T06:52:09.648Z,10.54
2022-12-22T06:57:15.461Z,10.55
2022-12-22T07:02:26.459Z,10.58
2022-12-22T07:07:43.681Z,10.56
2022-12-22T07:13:20.641Z,10.60
2022-12-22T07:18:33.637Z,10.60
2022-12-22T07:23:46.345Z,10.66
2022-12-22T07:28:57.927Z,10.80
2022-12-22T07:34:02.525Z,10.81
2022-12-22T07:39:08.451Z,10.78
2022-12-22T07:44:17.208Z,10.76
2022-12-22T07:49:39.626Z,10.74
2022-12-22T07:54:52.038Z,10.72
2022-12-22T08:00:00.826Z,10.72
2022-12-22T08:05:05.622Z,10.74
2022-12-22T08:10:14.830Z,10.73
2022-12-22T08:15:27.090Z,10.74
2022-12-22T08:20:45.793Z,10.70
2022-12-22T08:25:58.576Z,10.73
2022-12-22T08:31:13.695Z,10.75
2022-12-22T08:36:20.987Z,10.76
2022-12-22T08:41:41.730Z,10.78
2022-12-22T08:52:12.846Z,10.76
2022-12-22T08:57:30.085Z,10.74
2022-12-22T09:02:45.483Z,10.79
2022-12-22T09:07:50.428Z,10.84
2022-12-22T09:12:57.926Z,10.86
2022-12-22T09:18:08.659Z,10.91
2022-12-22T09:23:18.747Z,10.96
2022-12-22T09:28:25.128Z,11.00
2022-12-22T09:33:31.332Z,11.01
2022-12-22T09:38:35.329Z,11.06
2022-12-22T09:43:49.730Z,11.11
2022-12-22T09:48:57.646Z,11.12
2022-12-22T09:54:06.358Z,11.17
2022-12-22T09:59:19.322Z,11.22
2022-12-22T10:04:45.447Z,11.27
2022-12-22T10:09:54.034Z,11.36
2022-12-22T10:15:01.536Z,11.46
2022-12-22T10:20:25.604Z,11.57
2022-12-22T10:26:00.540Z,11.60
2022-12-22T10:31:26.484Z,11.68
2022-12-22T10:36:38.286Z,11.69
2022-12-22T10:41:55.348Z,11.71
2022-12-22T10:47:16.966Z,11.77
2022-12-22T10:52:32.843Z,11.87
2022-12-22T10:57:44.952Z,11.91
2022-12-22T11:02:58.723Z,12.05
2022-12-22T11:08:21.899Z,12.19
2022-12-22T11:14:08.059Z,12.36
2022-12-22T11:19:43.488Z,12.40
2022-12-22T11:25:06.634Z,12.52
2022-12-22T11:30:19.352Z,12.59
2022-12-22T11:35:56.905Z,12.68
2022-12-22T11:41:19.231Z,12.79
2022-12-22T11:46:34.719Z,12.89
2022-12-22T11:52:08.707Z,12.98
2022-12-22T11:57:29.067Z,13.03
2022-12-22T12:03:08.352Z,13.08
2022-12-22T12:08:34.728Z,13.04
2022-12-22T12:13:54.233Z,13.01
2022-12-22T12:19:37.164Z,13.04
2022-12-22T12:24:56.809Z,13.02
2022-12-22T12:30:37.002Z,13.03
2022-12-22T12:35:45.059Z,13.04
2022-12-22T12:41:01.726Z,13.00
2022-12-22T12:46:54.401Z,12.93
2022-12-22T12:52:07.872Z,12.85
2022-12-22T13:04:02.355Z,12.78
2022-12-22T13:14:59.752Z,12.67
2022-12-22T13:20:15.272Z,12.61
2022-12-22T13:25:24.871Z,12.56
2022-12-22T13:30:34.667Z,12.55
2022-12-22T13:35:48.479Z,12.50
2022-12-22T13:41:00.623Z,12.51
2022-12-22T13:46:15.127Z,12.49
2022-12-22T13:51:26.331Z,12.43
2022-12-22T13:56:43.351Z,12.35
2022-12-22T14:01:52.789Z,12.33
2022-12-22T14:07:01.167Z,12.29
2022-12-22T14:12:17.667Z,12.26
2022-12-22T14:17:35.824Z,12.23
2022-12-22T14:22:51.418Z,12.24
2022-12-22T14:27:57.800Z,12.22
2022-12-22T14:33:19.347Z,12.24
2022-12-22T14:38:27.670Z,12.16
2022-12-22T14:43:35.800Z,12.10
2022-12-22T14:48:50.107Z,12.11
2022-12-22T14:53:58.525Z,12.10
2022-12-22T14:59:24.575Z,12.07
2022-12-22T15:04:32.816Z,12.02
2022-12-22T15:15:18.054Z,11.93
2022-12-22T15:20:25.715Z,11.88
2022-12-22T15:25:41.448Z,11.88
2022-12-22T15:30:45.846Z,11.82
2022-12-22T15:35:50.694Z,11.75
2022-12-22T15:40:59.131Z,11.72
2022-12-22T15:46:06.721Z,11.66
2022-12-22T15:51:22.189Z,11.65
2022-12-22T15:56:33.606Z,11.58
2022-12-22T16:01:38.132Z,11.50
2022-12-22T16:06:43.011Z,11.33
2022-12-22T16:11:49.218Z,11.13
2022-12-22T16:16:53.705Z,11.04
2022-12-22T16:21:58.656Z,10.98
2022-12-22T16:27:10.412Z,10.92
2022-12-22T16:32:28.667Z,10.94
2022-12-22T16:37:33.798Z,10.99
2022-12-22T16:48:15.520Z,10.88
2022-12-22T16:53:23.985Z,10.85
2022-12-22T16:58:33.925Z,10.88
2022-12-22T17:03:44.278Z,10.82
2022-12-22T17:08:53.588Z,10.66
2022-12-22T17:14:06.632Z,10.52
2022-12-22T17:19:14.225Z,10.40
2022-12-22T17:24:28.111Z,10.33
2022-12-22T17:29:38.879Z,10.29
2022-12-22T17:34:44.009Z,10.18
2022-12-22T17:39:52.485Z,10.11
2022-12-22T17:44:59.996Z,10.01
2022-12-22T17:50:04.550Z,9.95
2022-12-22T17:56:06.036Z,9.91
2022-12-22T18:01:03.418Z,9.87
2022-12-22T18:06:14.398Z,9.85
2022-12-22T18:11:25.465Z,9.83
2022-12-22T18:16:45.750Z,9.80
2022-12-22T18:21:53.302Z,9.69
2022-12-22T18:27:02.018Z,9.59
2022-12-22T18:32:25.230Z,9.48
2022-12-22T18:37:39.392Z,9.49
2022-12-22T18:42:46.771Z,9.47
2022-12-22T18:47:58.601Z,9.44
2022-12-22T18:53:26.781Z,9.39
2022-12-22T18:58:32.251Z,9.43
2022-12-22T19:03:39.466Z,9.35
2022-12-22T19:08:53.762Z,9.29
2022-12-22T19:13:59.793Z,9.17
2022-12-22T19:19:10.906Z,9.06
2022-12-22T19:24:24.235Z,9.06
2022-12-22T19:29:30.665Z,9.22
2022-12-22T19:34:45.067Z,9.33
2022-12-22T19:39:55.526Z,9.41
2022-12-22T19:45:05.387Z,9.47
2022-12-22T19:50:26.984Z,9.48
2022-12-22T19:55:41.806Z,9.39
2022-12-22T20:01:11.341Z,9.33
2022-12-22T20:06:23.095Z,9.21
2022-12-22T20:11:29.702Z,9.17
2022-12-22T20:16:46.753Z,9.26
2022-12-22T20:22:00.991Z,9.16
2022-12-22T20:27:12.999Z,9.03
2022-12-22T20:32:28.150Z,8.99
2022-12-22T20:37:40.631Z,8.99
2022-12-22T20:42:48.231Z,8.99
2022-12-22T20:47:56.043Z,9.14
2022-12-22T20:53:19.266Z,9.22
2022-12-22T20:58:35.950Z,9.16
2022-12-22T21:03:43.333Z,9.27
2022-12-22T21:08:53.342Z,9.46
2022-12-22T21:14:03.088Z,9.54
2022-12-22T21:19:08.884Z,9.60
2022-12-22T21:24:19.304Z,9.67
2022-12-22T21:29:31.837Z,9.76
2022-12-22T21:34:54.656Z,9.79
2022-12-22T21:40:04.287Z,9.85
2022-12-22T21:45:14.591Z,9.90
2022-12-22T21:50:41.672Z,9.82
2022-12-22T21:55:53.163Z,9.87
2022-12-22T22:01:03.644Z,9.90
2022-12-22T22:06:16.864Z,9.85
2022-12-22T22:16:48.099Z,9.88
2022-12-22T22:21:52.355Z,9.92
2022-12-22T22:27:06.003Z,9.97
2022-12-22T22:32:16.104Z,9.96
2022-12-22T22:37:20.632Z,9.95
2022-12-22T22:42:34.031Z,9.96
2022-12-22T22:47:38.682Z,9.92
2022-12-22T22:52:46.283Z,9.91
2022-12-22T22:57:52.668Z,9.91
2022-12-22T23:03:02.735Z,9.90
2022-12-22T23:08:09.298Z,9.91
2022-12-22T23:13:16.160Z,9.93
2022-12-22T23:18:25.671Z,9.95
2022-12-22T23:23:34.426Z,9.92
2022-12-22T23:29:03.682Z,9.99
2022-12-22T23:34:09.197Z,9.98
2022-12-22T23:39:17.914Z,9.96
2022-12-22T23:44:31.923Z,9.93
2022-12-22T23:49:41.139Z,9.93
2022-12-22T23:54:59.346Z,9.95
